createdAt,value
2023-02-21T00:02:59.567Z,6.12
2023-02-21T00:08:21.192Z,6.14
2023-02-21T00:13:42.394Z,6.14
2023-02-21T00:19:03.925Z,6.15
2023-02-21T00:24:25.996Z,6.14
2023-02-21T00:29:53.036Z,6.14
2023-02-21T00:35:17.036Z,6.13
2023-02-21T00:40:41.137Z,6.12
2023-02-21T00:46:02.688Z,6.13
2023-02-21T00:51:24.568Z,6.12
2023-02-21T00:56:45.843Z,6.12
2023-02-21T01:02:08.061Z,6.11
2023-02-21T01:07:29.282Z,6.10
2023-02-21T01:12:37.481Z,6.09
2023-02-21T01:17:58.831Z,6.07
2023-02-21T01:23:20.013Z,6.04
2023-02-21T01:28:41.296Z,6.01
2023-02-21T01:34:02.419Z,5.94
2023-02-21T01:39:23.917Z,5.86
2023-02-21T01:44:51.481Z,5.79
2023-02-21T01:50:13.118Z,5.73
2023-02-21T01:55:34.803Z,5.65
2023-02-21T02:00:57.372Z,5.57
2023-02-21T02:06:26.144Z,5.53
2023-02-21T02:12:25.374Z,5.53
2023-02-21T02:18:03.330Z,5.53
2023-02-21T02:23:34.784Z,5.53
2023-02-21T02:29:08.287Z,5.50
2023-02-21T02:34:46.983Z,5.49
2023-02-21T02:39:55.761Z,5.48
2023-02-21T02:45:06.045Z,5.49
2023-02-21T02:50:10.387Z,5.50
2023-02-21T02:55:35.395Z,5.53
2023-02-21T03:00:42.047Z,5.55
2023-02-21T03:06:06.106Z,5.59
2023-02-21T03:11:19.197Z,5.62
2023-02-21T03:16:36.495Z,5.62
2023-02-21T03:21:55.544Z,5.61
2023-02-21T03:27:04.885Z,5.59
2023-02-21T03:32:21.714Z,5.57
2023-02-21T03:37:30.544Z,5.54
2023-02-21T03:42:33.336Z,5.51
2023-02-21T03:47:36.398Z,5.50
2023-02-21T03:52:39.211Z,5.49
2023-02-21T03:57:42.315Z,5.44
2023-02-21T04:02:45.046Z,5.41
2023-02-21T04:07:48.052Z,5.32
2023-02-21T04:12:50.811Z,5.17
2023-02-21T04:17:53.599Z,5.06
2023-02-21T04:23:03.074Z,5.02
2023-02-21T04:28:06.129Z,5.14
2023-02-21T04:33:08.931Z,5.29
2023-02-21T04:38:11.667Z,5.38
2023-02-21T04:43:14.443Z,5.44
2023-02-21T04:48:17.787Z,5.46
2023-02-21T04:53:20.529Z,5.42
2023-02-21T04:58:24.547Z,5.31
2023-02-21T05:03:28.694Z,5.17
2023-02-21T05:08:31.450Z,5.09
2023-02-21T05:13:34.170Z,5.03
2023-02-21T05:18:38.333Z,4.97
2023-02-21T05:23:42.875Z,5.00
2023-02-21T05:28:45.623Z,5.00
2023-02-21T05:33:48.445Z,4.96
2023-02-21T05:38:54.480Z,4.94
2023-02-21T05:43:57.294Z,4.96
2023-02-21T05:49:02.358Z,4.98
2023-02-21T05:54:06.995Z,4.99
2023-02-21T05:59:10.376Z,5.04
2023-02-21T06:04:13.605Z,4.99
2023-02-21T06:09:17.505Z,4.97
2023-02-21T06:14:21.000Z,4.92
2023-02-21T06:19:23.790Z,4.92
2023-02-21T06:24:26.523Z,4.86
2023-02-21T06:29:29.279Z,4.82
2023-02-21T06:34:32.127Z,4.79
2023-02-21T06:39:34.912Z,4.86
2023-02-21T06:44:37.681Z,4.90
2023-02-21T06:49:40.819Z,4.94
2023-02-21T06:54:43.852Z,4.96
2023-02-21T06:59:46.703Z,5.01
2023-02-21T07:04:49.703Z,5.05
2023-02-21T07:09:54.169Z,5.05
2023-02-21T07:14:57.470Z,5.01
2023-02-21T07:20:00.574Z,5.04
2023-02-21T07:25:03.729Z,5.08
2023-02-21T07:30:07.798Z,5.11
2023-02-21T07:35:11.045Z,5.13
2023-02-21T07:40:13.916Z,5.18
2023-02-21T07:45:17.048Z,5.27
2023-02-21T07:50:19.937Z,5.44
2023-02-21T07:55:28.560Z,5.52
2023-02-21T08:00:32.081Z,5.60
2023-02-21T08:05:54.054Z,5.63
2023-02-21T08:11:00.189Z,5.62
2023-02-21T08:16:03.336Z,5.54
2023-02-21T08:21:11.725Z,5.45
2023-02-21T08:26:14.572Z,5.37
2023-02-21T08:31:17.649Z,5.29
2023-02-21T08:36:20.685Z,5.25
2023-02-21T08:41:23.551Z,5.23
2023-02-21T08:46:26.382Z,5.27
2023-02-21T08:51:31.183Z,5.36
2023-02-21T09:03:08.349Z,5.53
2023-02-21T09:08:11.937Z,5.54
2023-02-21T09:13:15.055Z,5.53
2023-02-21T09:18:17.974Z,5.65
2023-02-21T09:23:26.420Z,5.82
2023-02-21T09:28:31.357Z,6.04
2023-02-21T09:33:42.743Z,6.24
2023-02-21T09:38:47.200Z,6.41
2023-02-21T09:43:54.209Z,6.57
2023-02-21T09:48:57.187Z,6.65
2023-02-21T09:54:03.447Z,6.70
2023-02-21T09:59:12.485Z,6.78
2023-02-21T10:04:22.190Z,6.80
2023-02-21T10:09:40.606Z,6.85
2023-02-21T10:15:02.006Z,6.87
2023-02-21T10:20:19.610Z,6.87
2023-02-21T10:25:31.606Z,6.90
2023-02-21T10:30:37.190Z,6.93
2023-02-21T10:35:40.403Z,6.93
2023-02-21T10:40:47.209Z,6.95
2023-02-21T10:46:05.881Z,7.01
2023-02-21T10:51:17.962Z,7.06
2023-02-21T10:56:24.805Z,7.07
2023-02-21T11:01:30.354Z,7.07
2023-02-21T11:06:46.652Z,7.10
2023-02-21T11:12:06.865Z,7.17
2023-02-21T11:17:23.915Z,7.14
2023-02-21T11:22:38.078Z,7.10
2023-02-21T11:27:41.458Z,6.97
2023-02-21T11:32:50.625Z,6.94
2023-02-21T11:38:05.753Z,6.91
2023-02-21T11:43:22.485Z,6.92
2023-02-21T11:48:31.791Z,6.99
2023-02-21T11:53:42.721Z,7.04
2023-02-21T11:58:58.252Z,7.12
2023-02-21T12:04:24.257Z,7.21
2023-02-21T12:09:47.231Z,7.30
2023-02-21T12:15:03.086Z,7.39
2023-02-21T12:20:21.229Z,7.42
2023-02-21T12:25:33.731Z,7.54
2023-02-21T12:31:24.266Z,7.57
2023-02-21T12:36:51.787Z,7.64
2023-02-21T12:42:20.045Z,7.62
2023-02-21T12:47:31.237Z,7.67
2023-02-21T12:52:40.529Z,7.68
2023-02-21T12:57:55.655Z,7.63
2023-02-21T13:03:38.962Z,7.60
2023-02-21T13:08:41.691Z,7.57
2023-02-21T13:13:45.250Z,7.48
2023-02-21T13:19:02.972Z,7.31
2023-02-21T13:24:49.465Z,7.20
2023-02-21T13:30:03.447Z,7.09
2023-02-21T13:35:12.890Z,7.01
2023-02-21T13:40:25.144Z,7.02
2023-02-21T13:45:28.285Z,7.07
2023-02-21T13:50:35.671Z,7.05
2023-02-21T13:56:00.544Z,6.98
2023-02-21T14:01:26.799Z,6.97
2023-02-21T14:06:35.160Z,6.99
2023-02-21T14:11:43.938Z,6.99
2023-02-21T14:16:48.752Z,6.99
2023-02-21T14:21:56.620Z,7.01
2023-02-21T14:32:14.772Z,7.02
2023-02-21T14:37:36.620Z,6.96
2023-02-21T14:43:16.810Z,6.89
2023-02-21T14:48:51.031Z,6.85
2023-02-21T14:54:27.850Z,6.80
2023-02-21T14:59:51.932Z,6.74
2023-02-21T15:05:19.636Z,6.70
2023-02-21T15:10:31.109Z,6.65
2023-02-21T15:15:38.556Z,6.63
2023-02-21T15:20:42.940Z,6.60
2023-02-21T15:25:56.573Z,6.54
2023-02-21T15:31:19.718Z,6.53
2023-02-21T15:36:23.902Z,6.49
2023-02-21T15:41:36.040Z,6.44
2023-02-21T15:46:54.496Z,6.38
2023-02-21T15:51:58.025Z,6.33
2023-02-21T15:57:22.865Z,6.29
2023-02-21T16:02:26.475Z,6.28
2023-02-21T16:07:37.653Z,6.26
2023-02-21T16:12:45.430Z,6.11
2023-02-21T16:17:55.117Z,5.85
2023-02-21T16:23:19.665Z,5.58
2023-02-21T16:28:22.600Z,5.37
2023-02-21T16:33:28.021Z,5.18
2023-02-21T16:38:31.135Z,5.06
2023-02-21T16:43:33.911Z,4.90
2023-02-21T16:48:36.685Z,4.75
2023-02-21T16:53:40.273Z,4.63
2023-02-21T16:58:48.734Z,4.53
2023-02-21T17:03:53.816Z,4.53
2023-02-21T17:08:58.827Z,4.48
2023-02-21T17:14:01.840Z,4.40
2023-02-21T17:19:08.516Z,4.32
2023-02-21T17:24:13.624Z,4.25
2023-02-21T17:29:16.521Z,4.16
2023-02-21T17:34:20.998Z,4.10
2023-02-21T17:39:24.187Z,4.06
2023-02-21T17:44:28.381Z,4.05
2023-02-21T17:49:32.852Z,4.06
2023-02-21T17:54:36.849Z,4.08
2023-02-21T17:59:41.073Z,4.09
2023-02-21T18:04:48.922Z,4.09
2023-02-21T18:09:54.649Z,4.11
2023-02-21T18:14:57.967Z,4.11
2023-02-21T18:20:02.441Z,4.12
2023-02-21T18:25:07.101Z,4.10
2023-02-21T18:30:11.723Z,4.11
2023-02-21T18:35:18.462Z,4.14
2023-02-21T18:40:36.509Z,4.17
2023-02-21T18:45:42.630Z,4.18
2023-02-21T18:50:46.237Z,4.15
2023-02-21T18:55:51.192Z,4.12
2023-02-21T19:00:56.446Z,4.14
2023-02-21T19:06:02.886Z,4.09
2023-02-21T19:11:09.262Z,4.05
2023-02-21T19:16:12.127Z,3.98
2023-02-21T19:21:15.376Z,3.92
2023-02-21T19:26:19.168Z,3.93
2023-02-21T19:31:23.661Z,3.91
2023-02-21T19:36:26.813Z,3.88
2023-02-21T19:41:30.989Z,3.85
2023-02-21T19:46:35.555Z,3.81
2023-02-21T19:51:39.229Z,3.77
2023-02-21T19:56:42.648Z,3.70
2023-02-21T20:01:47.987Z,3.68
2023-02-21T20:06:50.963Z,3.68
2023-02-21T20:11:53.729Z,3.71
2023-02-21T20:16:56.883Z,3.70
2023-02-21T20:21:59.692Z,3.60
2023-02-21T20:27:03.575Z,3.44
2023-02-21T20:32:07.222Z,3.27
2023-02-21T20:37:14.503Z,3.13
2023-02-21T20:42:18.309Z,3.07
2023-02-21T20:47:21.680Z,3.08
2023-02-21T20:52:24.593Z,3.08
2023-02-21T20:57:28.937Z,3.05
2023-02-21T21:02:31.895Z,2.98
2023-02-21T21:07:34.703Z,2.89
2023-02-21T21:12:37.792Z,2.88
2023-02-21T21:17:40.927Z,2.92
2023-02-21T21:22:43.949Z,2.94
2023-02-21T21:27:47.630Z,2.95
2023-02-21T21:32:50.471Z,2.98
2023-02-21T21:37:53.294Z,2.90
2023-02-21T21:42:56.476Z,2.75
2023-02-21T21:48:02.024Z,2.58
2023-02-21T21:53:05.601Z,2.46
2023-02-21T21:58:10.669Z,2.36
2023-02-21T22:03:18.454Z,2.32
2023-02-21T22:08:22.548Z,2.35
2023-02-21T22:13:29.258Z,2.42
2023-02-21T22:18:32.210Z,2.47
2023-02-21T22:23:38.588Z,2.50
2023-02-21T22:28:41.363Z,2.49
2023-02-21T22:33:44.493Z,2.41
2023-02-21T22:38:49.281Z,2.23
2023-02-21T22:43:53.754Z,2.07
2023-02-21T22:48:56.626Z,1.93
2023-02-21T22:53:59.543Z,1.86
2023-02-21T22:59:05.721Z,1.85
2023-02-21T23:04:15.954Z,1.86
2023-02-21T23:09:18.749Z,1.87
2023-02-21T23:14:22.182Z,1.88
2023-02-21T23:19:26.207Z,1.89
2023-02-21T23:24:29.150Z,1.89
2023-02-21T23:29:32.022Z,1.89
2023-02-21T23:34:40.738Z,1.90
2023-02-21T23:39:46.733Z,1.96
2023-02-21T23:44:50.858Z,2.04
2023-02-21T23:49:58.069Z,2.05
2023-02-21T23:55:02.992Z,2.08
